sensor_id;sensor_type;location;lat;lon;timestamp;P1;durP1;ratioP1;P2;durP2;ratioP2
79338;SDS011;74181;41.704;44.786;2023-12-20T00:00:18;11.88;;;5.07;;
79338;SDS011;74181;41.704;44.786;2023-12-20T00:02:44;11.57;;;4.72;;
79338;SDS011;74181;41.704;44.786;2023-12-20T00:05:13;9.93;;;4.40;;
79338;SDS011;74181;41.704;44.786;2023-12-20T00:07:40;8.07;;;4.20;;
79338;SDS011;74181;41.704;44.786;2023-12-20T00:10:06;11.25;;;4.20;;
79338;SDS011;74181;41.704;44.786;2023-12-20T00:12:33;10.73;;;4.18;;
79338;SDS011;74181;41.704;44.786;2023-12-20T00:14:59;10.85;;;4.00;;
79338;SDS011;74181;41.704;44.786;2023-12-20T00:17:25;7.72;;;3.55;;
79338;SDS011;74181;41.704;44.786;2023-12-20T00:19:51;8.23;;;3.80;;
79338;SDS011;74181;41.704;44.786;2023-12-20T00:22:17;8.77;;;3.63;;
79338;SDS011;74181;41.704;44.786;2023-12-20T00:24:46;12.32;;;4.15;;
79338;SDS011;74181;41.704;44.786;2023-12-20T00:27:12;9.38;;;3.97;;
79338;SDS011;74181;41.704;44.786;2023-12-20T00:29:38;9.13;;;3.95;;
79338;SDS011;74181;41.704;44.786;2023-12-20T00:32:04;10.67;;;4.10;;
79338;SDS011;74181;41.704;44.786;2023-12-20T00:34:31;9.73;;;4.53;;
79338;SDS011;74181;41.704;44.786;2023-12-20T00:36:57;8.88;;;4.43;;
79338;SDS011;74181;41.704;44.786;2023-12-20T00:39:23;7.80;;;3.83;;
79338;SDS011;74181;41.704;44.786;2023-12-20T00:41:50;9.98;;;3.45;;
79338;SDS011;74181;41.704;44.786;2023-12-20T00:44:16;9.13;;;3.47;;
79338;SDS011;74181;41.704;44.786;2023-12-20T00:46:42;11.15;;;4.10;;
79338;SDS011;74181;41.704;44.786;2023-12-20T00:49:08;10.55;;;4.10;;
79338;SDS011;74181;41.704;44.786;2023-12-20T00:51:34;10.98;;;4.38;;
79338;SDS011;74181;41.704;44.786;2023-12-20T00:54:00;8.35;;;3.80;;
79338;SDS011;74181;41.704;44.786;2023-12-20T00:56:27;10.53;;;3.73;;
79338;SDS011;74181;41.704;44.786;2023-12-20T00:58:53;7.53;;;3.40;;
79338;SDS011;74181;41.704;44.786;2023-12-20T01:01:19;9.10;;;3.78;;
79338;SDS011;74181;41.704;44.786;2023-12-20T01:03:45;9.40;;;3.70;;
79338;SDS011;74181;41.704;44.786;2023-12-20T01:06:11;10.20;;;4.00;;
79338;SDS011;74181;41.704;44.786;2023-12-20T01:08:37;13.23;;;4.30;;
79338;SDS011;74181;41.704;44.786;2023-12-20T01:11:04;10.05;;;4.18;;
79338;SDS011;74181;41.704;44.786;2023-12-20T01:13:31;9.05;;;4.22;;
79338;SDS011;74181;41.704;44.786;2023-12-20T01:15:57;12.27;;;4.45;;
79338;SDS011;74181;41.704;44.786;2023-12-20T01:18:23;9.68;;;4.03;;
79338;SDS011;74181;41.704;44.786;2023-12-20T01:20:49;8.20;;;4.00;;
79338;SDS011;74181;41.704;44.786;2023-12-20T01:23:15;8.95;;;4.00;;
79338;SDS011;74181;41.704;44.786;2023-12-20T01:25:41;8.85;;;3.60;;
79338;SDS011;74181;41.704;44.786;2023-12-20T01:28:09;8.43;;;3.72;;
79338;SDS011;74181;41.704;44.786;2023-12-20T01:30:35;9.38;;;3.70;;
79338;SDS011;74181;41.704;44.786;2023-12-20T01:33:01;9.10;;;3.77;;
79338;SDS011;74181;41.704;44.786;2023-12-20T01:35:27;7.97;;;3.58;;
79338;SDS011;74181;41.704;44.786;2023-12-20T01:37:53;9.13;;;3.60;;
79338;SDS011;74181;41.704;44.786;2023-12-20T01:40:22;8.68;;;3.50;;
79338;SDS011;74181;41.704;44.786;2023-12-20T01:43:08;8.40;;;3.38;;
79338;SDS011;74181;41.704;44.786;2023-12-20T01:45:34;8.33;;;3.20;;
79338;SDS011;74181;41.704;44.786;2023-12-20T01:48:01;7.68;;;3.38;;
79338;SDS011;74181;41.704;44.786;2023-12-20T01:50:28;10.40;;;3.28;;
79338;SDS011;74181;41.704;44.786;2023-12-20T01:52:55;8.75;;;3.50;;
79338;SDS011;74181;41.704;44.786;2023-12-20T01:55:23;8.10;;;3.60;;
79338;SDS011;74181;41.704;44.786;2023-12-20T01:57:50;8.70;;;3.60;;
79338;SDS011;74181;41.704;44.786;2023-12-20T02:00:17;7.55;;;3.20;;
79338;SDS011;74181;41.704;44.786;2023-12-20T02:02:43;7.75;;;3.10;;
79338;SDS011;74181;41.704;44.786;2023-12-20T02:05:10;8.02;;;3.22;;
79338;SDS011;74181;41.704;44.786;2023-12-20T02:07:37;9.02;;;4.13;;
79338;SDS011;74181;41.704;44.786;2023-12-20T02:10:03;12.30;;;4.60;;
79338;SDS011;74181;41.704;44.786;2023-12-20T02:12:32;9.13;;;3.75;;
79338;SDS011;74181;41.704;44.786;2023-12-20T02:14:58;9.13;;;4.32;;
79338;SDS011;74181;41.704;44.786;2023-12-20T02:17:25;11.70;;;4.60;;
79338;SDS011;74181;41.704;44.786;2023-12-20T02:19:51;13.52;;;5.07;;
79338;SDS011;74181;41.704;44.786;2023-12-20T02:22:17;15.17;;;4.60;;
79338;SDS011;74181;41.704;44.786;2023-12-20T02:24:44;11.07;;;4.25;;
79338;SDS011;74181;41.704;44.786;2023-12-20T02:27:10;9.98;;;3.85;;
79338;SDS011;74181;41.704;44.786;2023-12-20T02:29:36;10.93;;;3.75;;
79338;SDS011;74181;41.704;44.786;2023-12-20T02:32:02;9.60;;;3.60;;
79338;SDS011;74181;41.704;44.786;2023-12-20T02:34:29;9.77;;;3.70;;
79338;SDS011;74181;41.704;44.786;2023-12-20T02:36:55;7.93;;;3.22;;
79338;SDS011;74181;41.704;44.786;2023-12-20T02:39:21;11.38;;;3.50;;
79338;SDS011;74181;41.704;44.786;2023-12-20T02:41:48;8.80;;;3.20;;
79338;SDS011;74181;41.704;44.786;2023-12-20T02:44:14;8.73;;;3.22;;
79338;SDS011;74181;41.704;44.786;2023-12-20T02:46:40;7.93;;;3.20;;
79338;SDS011;74181;41.704;44.786;2023-12-20T02:49:07;8.93;;;3.40;;
79338;SDS011;74181;41.704;44.786;2023-12-20T02:51:33;8.85;;;3.30;;
79338;SDS011;74181;41.704;44.786;2023-12-20T02:53:59;8.90;;;3.40;;
79338;SDS011;74181;41.704;44.786;2023-12-20T02:56:25;11.30;;;3.97;;
79338;SDS011;74181;41.704;44.786;2023-12-20T02:58:51;9.47;;;3.60;;
79338;SDS011;74181;41.704;44.786;2023-12-20T03:01:17;10.23;;;3.50;;
79338;SDS011;74181;41.704;44.786;2023-12-20T03:03:43;7.47;;;3.47;;
79338;SDS011;74181;41.704;44.786;2023-12-20T03:06:09;8.32;;;3.67;;
79338;SDS011;74181;41.704;44.786;2023-12-20T03:08:35;13.90;;;5.32;;
79338;SDS011;74181;41.704;44.786;2023-12-20T03:11:01;15.77;;;6.00;;
79338;SDS011;74181;41.704;44.786;2023-12-20T03:13:28;15.55;;;6.03;;
79338;SDS011;74181;41.704;44.786;2023-12-20T03:15:54;16.38;;;5.95;;
79338;SDS011;74181;41.704;44.786;2023-12-20T03:18:20;15.40;;;5.07;;
79338;SDS011;74181;41.704;44.786;2023-12-20T03:20:46;13.10;;;4.50;;
79338;SDS011;74181;41.704;44.786;2023-12-20T03:23:15;10.67;;;4.40;;
79338;SDS011;74181;41.704;44.786;2023-12-20T03:25:41;13.00;;;4.93;;
79338;SDS011;74181;41.704;44.786;2023-12-20T03:28:07;13.35;;;5.45;;
79338;SDS011;74181;41.704;44.786;2023-12-20T03:30:34;14.40;;;5.68;;
79338;SDS011;74181;41.704;44.786;2023-12-20T03:33:00;14.25;;;5.88;;
79338;SDS011;74181;41.704;44.786;2023-12-20T03:35:26;16.03;;;5.63;;
79338;SDS011;74181;41.704;44.786;2023-12-20T03:37:52;15.02;;;5.57;;
79338;SDS011;74181;41.704;44.786;2023-12-20T03:40:18;15.18;;;5.85;;
79338;SDS011;74181;41.704;44.786;2023-12-20T03:42:45;18.65;;;6.07;;
79338;SDS011;74181;41.704;44.786;2023-12-20T03:45:11;14.25;;;5.72;;
79338;SDS011;74181;41.704;44.786;2023-12-20T03:47:37;16.13;;;5.97;;
79338;SDS011;74181;41.704;44.786;2023-12-20T03:50:03;14.00;;;5.80;;
79338;SDS011;74181;41.704;44.786;2023-12-20T03:52:30;14.73;;;5.97;;
79338;SDS011;74181;41.704;44.786;2023-12-20T03:54:56;13.85;;;5.78;;
79338;SDS011;74181;41.704;44.786;2023-12-20T03:57:22;13.77;;;5.65;;
79338;SDS011;74181;41.704;44.786;2023-12-20T03:59:48;13.73;;;5.40;;
79338;SDS011;74181;41.704;44.786;2023-12-20T04:02:14;13.32;;;5.65;;
79338;SDS011;74181;41.704;44.786;2023-12-20T04:04:41;15.80;;;6.20;;
79338;SDS011;74181;41.704;44.786;2023-12-20T04:07:07;17.75;;;6.30;;
79338;SDS011;74181;41.704;44.786;2023-12-20T04:09:34;17.17;;;6.63;;
79338;SDS011;74181;41.704;44.786;2023-12-20T04:12:00;17.13;;;6.47;;
79338;SDS011;74181;41.704;44.786;2023-12-20T04:14:26;17.10;;;6.43;;
79338;SDS011;74181;41.704;44.786;2023-12-20T04:16:52;17.23;;;7.15;;
79338;SDS011;74181;41.704;44.786;2023-12-20T04:19:19;18.25;;;7.15;;
79338;SDS011;74181;41.704;44.786;2023-12-20T04:21:45;18.95;;;7.18;;
79338;SDS011;74181;41.704;44.786;2023-12-20T04:24:11;18.63;;;6.60;;
79338;SDS011;74181;41.704;44.786;2023-12-20T04:26:39;20.58;;;7.03;;
79338;SDS011;74181;41.704;44.786;2023-12-20T04:29:05;20.85;;;7.32;;
79338;SDS011;74181;41.704;44.786;2023-12-20T04:31:31;15.45;;;7.13;;
79338;SDS011;74181;41.704;44.786;2023-12-20T04:33:57;16.75;;;7.10;;
79338;SDS011;74181;41.704;44.786;2023-12-20T04:36:23;15.20;;;6.43;;
79338;SDS011;74181;41.704;44.786;2023-12-20T04:38:53;17.00;;;7.50;;
79338;SDS011;74181;41.704;44.786;2023-12-20T04:41:19;19.20;;;6.75;;
79338;SDS011;74181;41.704;44.786;2023-12-20T04:43:45;16.88;;;7.20;;
79338;SDS011;74181;41.704;44.786;2023-12-20T04:46:11;17.58;;;7.35;;
79338;SDS011;74181;41.704;44.786;2023-12-20T04:48:37;18.77;;;7.10;;
79338;SDS011;74181;41.704;44.786;2023-12-20T04:51:03;16.80;;;7.20;;
79338;SDS011;74181;41.704;44.786;2023-12-20T04:53:30;18.25;;;7.07;;
79338;SDS011;74181;41.704;44.786;2023-12-20T04:55:56;16.38;;;7.25;;
79338;SDS011;74181;41.704;44.786;2023-12-20T04:58:22;17.02;;;7.20;;
79338;SDS011;74181;41.704;44.786;2023-12-20T05:00:48;20.07;;;7.43;;
79338;SDS011;74181;41.704;44.786;2023-12-20T05:03:14;22.05;;;7.53;;
79338;SDS011;74181;41.704;44.786;2023-12-20T05:05:40;19.60;;;8.10;;
79338;SDS011;74181;41.704;44.786;2023-12-20T05:08:06;18.73;;;8.40;;
79338;SDS011;74181;41.704;44.786;2023-12-20T05:10:32;23.90;;;8.80;;
79338;SDS011;74181;41.704;44.786;2023-12-20T05:12:58;24.17;;;9.50;;
79338;SDS011;74181;41.704;44.786;2023-12-20T05:15:25;23.70;;;9.43;;
79338;SDS011;74181;41.704;44.786;2023-12-20T05:17:51;29.23;;;9.80;;
79338;SDS011;74181;41.704;44.786;2023-12-20T05:20:17;25.77;;;10.10;;
79338;SDS011;74181;41.704;44.786;2023-12-20T05:22:43;27.45;;;9.85;;
79338;SDS011;74181;41.704;44.786;2023-12-20T05:25:10;22.97;;;9.73;;
79338;SDS011;74181;41.704;44.786;2023-12-20T05:27:37;24.15;;;9.73;;
79338;SDS011;74181;41.704;44.786;2023-12-20T05:30:03;19.80;;;7.60;;
79338;SDS011;74181;41.704;44.786;2023-12-20T05:32:31;18.77;;;7.63;;
79338;SDS011;74181;41.704;44.786;2023-12-20T05:34:57;16.00;;;6.00;;
79338;SDS011;74181;41.704;44.786;2023-12-20T05:37:23;11.87;;;4.63;;
79338;SDS011;74181;41.704;44.786;2023-12-20T05:39:49;9.98;;;4.18;;
79338;SDS011;74181;41.704;44.786;2023-12-20T05:42:15;13.75;;;4.63;;
79338;SDS011;74181;41.704;44.786;2023-12-20T05:44:41;23.52;;;9.93;;
79338;SDS011;74181;41.704;44.786;2023-12-20T05:47:07;28.65;;;11.55;;
79338;SDS011;74181;41.704;44.786;2023-12-20T05:49:34;27.03;;;10.83;;
79338;SDS011;74181;41.704;44.786;2023-12-20T05:52:00;28.77;;;10.65;;
79338;SDS011;74181;41.704;44.786;2023-12-20T05:54:26;27.40;;;11.88;;
79338;SDS011;74181;41.704;44.786;2023-12-20T05:56:52;26.27;;;10.23;;
79338;SDS011;74181;41.704;44.786;2023-12-20T05:59:18;25.92;;;9.88;;
79338;SDS011;74181;41.704;44.786;2023-12-20T06:01:44;23.97;;;10.37;;
79338;SDS011;74181;41.704;44.786;2023-12-20T06:04:10;26.08;;;10.70;;
79338;SDS011;74181;41.704;44.786;2023-12-20T06:06:40;31.50;;;11.25;;
79338;SDS011;74181;41.704;44.786;2023-12-20T06:09:08;28.30;;;11.35;;
79338;SDS011;74181;41.704;44.786;2023-12-20T06:11:34;28.02;;;11.35;;
79338;SDS011;74181;41.704;44.786;2023-12-20T06:14:00;30.20;;;11.57;;
79338;SDS011;74181;41.704;44.786;2023-12-20T06:16:26;31.45;;;11.65;;
79338;SDS011;74181;41.704;44.786;2023-12-20T06:18:55;29.75;;;12.57;;
79338;SDS011;74181;41.704;44.786;2023-12-20T06:21:22;30.38;;;12.25;;
79338;SDS011;74181;41.704;44.786;2023-12-20T06:23:48;29.58;;;12.32;;
79338;SDS011;74181;41.704;44.786;2023-12-20T06:26:15;33.80;;;13.70;;
79338;SDS011;74181;41.704;44.786;2023-12-20T06:28:41;31.08;;;12.70;;
79338;SDS011;74181;41.704;44.786;2023-12-20T06:31:07;31.92;;;12.63;;
79338;SDS011;74181;41.704;44.786;2023-12-20T06:33:33;38.38;;;14.05;;
79338;SDS011;74181;41.704;44.786;2023-12-20T06:36:00;35.60;;;12.90;;
79338;SDS011;74181;41.704;44.786;2023-12-20T06:38:26;35.93;;;12.87;;
79338;SDS011;74181;41.704;44.786;2023-12-20T06:40:53;37.33;;;13.93;;
79338;SDS011;74181;41.704;44.786;2023-12-20T06:43:20;32.80;;;13.70;;
79338;SDS011;74181;41.704;44.786;2023-12-20T06:45:47;32.60;;;13.80;;
79338;SDS011;74181;41.704;44.786;2023-12-20T06:48:13;34.63;;;14.85;;
79338;SDS011;74181;41.704;44.786;2023-12-20T06:50:40;35.00;;;14.50;;
79338;SDS011;74181;41.704;44.786;2023-12-20T06:53:06;34.60;;;14.60;;
79338;SDS011;74181;41.704;44.786;2023-12-20T06:55:33;42.83;;;15.70;;
79338;SDS011;74181;41.704;44.786;2023-12-20T06:58:01;38.22;;;16.08;;
79338;SDS011;74181;41.704;44.786;2023-12-20T07:00:32;40.40;;;15.45;;
79338;SDS011;74181;41.704;44.786;2023-12-20T07:03:19;33.93;;;14.90;;
79338;SDS011;74181;41.704;44.786;2023-12-20T07:05:45;35.28;;;15.00;;
79338;SDS011;74181;41.704;44.786;2023-12-20T07:08:11;34.42;;;15.30;;
79338;SDS011;74181;41.704;44.786;2023-12-20T07:10:40;32.95;;;15.00;;
79338;SDS011;74181;41.704;44.786;2023-12-20T07:13:15;35.75;;;14.48;;
79338;SDS011;74181;41.704;44.786;2023-12-20T07:15:41;29.70;;;13.47;;
79338;SDS011;74181;41.704;44.786;2023-12-20T07:18:07;33.35;;;14.15;;
79338;SDS011;74181;41.704;44.786;2023-12-20T07:20:34;38.20;;;15.07;;
79338;SDS011;74181;41.704;44.786;2023-12-20T07:23:00;34.58;;;14.57;;
79338;SDS011;74181;41.704;44.786;2023-12-20T07:25:26;32.00;;;13.48;;
79338;SDS011;74181;41.704;44.786;2023-12-20T07:27:53;32.63;;;13.80;;
79338;SDS011;74181;41.704;44.786;2023-12-20T07:30:19;36.08;;;14.30;;
79338;SDS011;74181;41.704;44.786;2023-12-20T07:32:45;33.53;;;13.77;;
79338;SDS011;74181;41.704;44.786;2023-12-20T07:35:13;31.50;;;13.70;;
79338;SDS011;74181;41.704;44.786;2023-12-20T07:37:39;31.52;;;13.95;;
79338;SDS011;74181;41.704;44.786;2023-12-20T07:40:05;28.47;;;13.63;;
79338;SDS011;74181;41.704;44.786;2023-12-20T07:42:32;24.20;;;12.70;;
79338;SDS011;74181;41.704;44.786;2023-12-20T07:44:59;24.15;;;12.75;;
79338;SDS011;74181;41.704;44.786;2023-12-20T07:47:25;30.98;;;13.20;;
79338;SDS011;74181;41.704;44.786;2023-12-20T07:49:51;34.85;;;13.85;;
79338;SDS011;74181;41.704;44.786;2023-12-20T07:52:18;32.87;;;12.60;;
79338;SDS011;74181;41.704;44.786;2023-12-20T07:54:45;31.63;;;13.45;;
79338;SDS011;74181;41.704;44.786;2023-12-20T07:57:11;29.17;;;13.95;;
79338;SDS011;74181;41.704;44.786;2023-12-20T07:59:38;27.60;;;12.45;;
79338;SDS011;74181;41.704;44.786;2023-12-20T08:02:04;29.98;;;12.85;;
79338;SDS011;74181;41.704;44.786;2023-12-20T08:04:33;25.57;;;12.20;;
79338;SDS011;74181;41.704;44.786;2023-12-20T08:07:00;32.08;;;12.60;;
79338;SDS011;74181;41.704;44.786;2023-12-20T08:09:26;35.35;;;13.18;;
79338;SDS011;74181;41.704;44.786;2023-12-20T08:11:52;31.65;;;12.25;;
79338;SDS011;74181;41.704;44.786;2023-12-20T08:14:18;23.55;;;12.05;;
79338;SDS011;74181;41.704;44.786;2023-12-20T08:16:44;29.20;;;12.93;;
79338;SDS011;74181;41.704;44.786;2023-12-20T08:19:10;27.55;;;12.27;;
79338;SDS011;74181;41.704;44.786;2023-12-20T08:21:37;28.45;;;12.27;;
79338;SDS011;74181;41.704;44.786;2023-12-20T08:24:03;31.70;;;12.63;;
79338;SDS011;74181;41.704;44.786;2023-12-20T08:26:29;34.22;;;12.70;;
79338;SDS011;74181;41.704;44.786;2023-12-20T08:28:55;30.40;;;12.47;;
79338;SDS011;74181;41.704;44.786;2023-12-20T08:31:21;24.13;;;11.90;;
79338;SDS011;74181;41.704;44.786;2023-12-20T08:33:48;28.73;;;12.40;;
79338;SDS011;74181;41.704;44.786;2023-12-20T08:36:15;25.58;;;10.23;;
79338;SDS011;74181;41.704;44.786;2023-12-20T08:38:43;22.02;;;9.07;;
79338;SDS011;74181;41.704;44.786;2023-12-20T08:41:09;30.83;;;9.57;;
79338;SDS011;74181;41.704;44.786;2023-12-20T08:43:36;21.92;;;9.43;;
79338;SDS011;74181;41.704;44.786;2023-12-20T08:46:02;21.92;;;9.38;;
79338;SDS011;74181;41.704;44.786;2023-12-20T08:48:28;23.63;;;8.60;;
79338;SDS011;74181;41.704;44.786;2023-12-20T08:50:55;17.67;;;8.90;;
79338;SDS011;74181;41.704;44.786;2023-12-20T08:53:21;20.63;;;8.77;;
79338;SDS011;74181;41.704;44.786;2023-12-20T08:55:47;17.95;;;8.10;;
79338;SDS011;74181;41.704;44.786;2023-12-20T08:58:13;17.95;;;7.75;;
79338;SDS011;74181;41.704;44.786;2023-12-20T09:00:39;17.85;;;7.85;;
79338;SDS011;74181;41.704;44.786;2023-12-20T09:03:06;16.08;;;7.32;;
79338;SDS011;74181;41.704;44.786;2023-12-20T09:05:32;18.53;;;7.40;;
79338;SDS011;74181;41.704;44.786;2023-12-20T09:07:58;21.30;;;9.45;;
79338;SDS011;74181;41.704;44.786;2023-12-20T09:10:24;20.10;;;8.70;;
79338;SDS011;74181;41.704;44.786;2023-12-20T09:12:51;22.13;;;9.25;;
79338;SDS011;74181;41.704;44.786;2023-12-20T09:15:24;20.13;;;9.55;;
79338;SDS011;74181;41.704;44.786;2023-12-20T09:17:52;24.43;;;10.67;;
79338;SDS011;74181;41.704;44.786;2023-12-20T09:20:18;28.10;;;11.07;;
79338;SDS011;74181;41.704;44.786;2023-12-20T09:22:45;23.75;;;9.60;;
79338;SDS011;74181;41.704;44.786;2023-12-20T09:25:11;23.48;;;9.70;;
79338;SDS011;74181;41.704;44.786;2023-12-20T09:27:38;22.23;;;9.98;;
79338;SDS011;74181;41.704;44.786;2023-12-20T09:30:04;21.87;;;9.77;;
79338;SDS011;74181;41.704;44.786;2023-12-20T09:32:33;25.27;;;10.32;;
79338;SDS011;74181;41.704;44.786;2023-12-20T09:35:00;24.27;;;10.45;;
79338;SDS011;74181;41.704;44.786;2023-12-20T09:37:26;23.05;;;10.07;;
79338;SDS011;74181;41.704;44.786;2023-12-20T09:39:54;23.95;;;10.25;;
79338;SDS011;74181;41.704;44.786;2023-12-20T09:45:10;21.98;;;10.60;;
79338;SDS011;74181;41.704;44.786;2023-12-20T09:47:39;23.67;;;11.20;;
79338;SDS011;74181;41.704;44.786;2023-12-20T09:50:06;23.40;;;10.75;;
79338;SDS011;74181;41.704;44.786;2023-12-20T09:52:32;24.75;;;11.75;;
79338;SDS011;74181;41.704;44.786;2023-12-20T09:55:00;25.83;;;11.73;;
79338;SDS011;74181;41.704;44.786;2023-12-20T09:57:29;25.70;;;11.48;;
79338;SDS011;74181;41.704;44.786;2023-12-20T09:59:56;22.75;;;10.95;;
79338;SDS011;74181;41.704;44.786;2023-12-20T10:02:22;23.77;;;10.63;;
79338;SDS011;74181;41.704;44.786;2023-12-20T10:04:51;22.38;;;10.13;;
79338;SDS011;74181;41.704;44.786;2023-12-20T10:07:18;24.07;;;10.20;;
79338;SDS011;74181;41.704;44.786;2023-12-20T10:09:44;21.00;;;10.20;;
79338;SDS011;74181;41.704;44.786;2023-12-20T10:12:10;21.98;;;10.48;;
79338;SDS011;74181;41.704;44.786;2023-12-20T10:14:37;23.08;;;10.07;;
79338;SDS011;74181;41.704;44.786;2023-12-20T10:17:04;21.73;;;9.23;;
79338;SDS011;74181;41.704;44.786;2023-12-20T10:19:31;20.87;;;9.17;;
79338;SDS011;74181;41.704;44.786;2023-12-20T10:22:01;24.08;;;9.80;;
79338;SDS011;74181;41.704;44.786;2023-12-20T10:24:30;23.02;;;9.68;;
79338;SDS011;74181;41.704;44.786;2023-12-20T10:27:07;20.75;;;9.43;;
79338;SDS011;74181;41.704;44.786;2023-12-20T10:29:35;21.85;;;9.80;;
79338;SDS011;74181;41.704;44.786;2023-12-20T10:32:22;24.53;;;10.20;;
79338;SDS011;74181;41.704;44.786;2023-12-20T10:34:50;23.80;;;10.20;;
79338;SDS011;74181;41.704;44.786;2023-12-20T10:37:16;22.13;;;10.00;;
79338;SDS011;74181;41.704;44.786;2023-12-20T10:39:43;25.40;;;10.38;;
79338;SDS011;74181;41.704;44.786;2023-12-20T10:42:12;24.42;;;10.23;;
79338;SDS011;74181;41.704;44.786;2023-12-20T10:44:39;25.60;;;10.27;;
79338;SDS011;74181;41.704;44.786;2023-12-20T10:47:05;21.52;;;9.90;;
79338;SDS011;74181;41.704;44.786;2023-12-20T10:49:32;21.48;;;9.85;;
79338;SDS011;74181;41.704;44.786;2023-12-20T10:52:02;23.75;;;9.77;;
79338;SDS011;74181;41.704;44.786;2023-12-20T10:54:28;21.70;;;10.10;;
79338;SDS011;74181;41.704;44.786;2023-12-20T10:56:54;24.63;;;9.20;;
79338;SDS011;74181;41.704;44.786;2023-12-20T10:59:23;22.25;;;9.38;;
79338;SDS011;74181;41.704;44.786;2023-12-20T11:01:50;22.17;;;9.35;;
79338;SDS011;74181;41.704;44.786;2023-12-20T11:04:19;24.30;;;9.30;;
79338;SDS011;74181;41.704;44.786;2023-12-20T11:06:51;21.27;;;9.60;;
79338;SDS011;74181;41.704;44.786;2023-12-20T11:14:46;20.70;;;9.10;;
79338;SDS011;74181;41.704;44.786;2023-12-20T11:17:13;19.65;;;8.93;;
79338;SDS011;74181;41.704;44.786;2023-12-20T11:22:31;22.20;;;9.23;;
79338;SDS011;74181;41.704;44.786;2023-12-20T11:24:59;22.83;;;9.27;;
79338;SDS011;74181;41.704;44.786;2023-12-20T11:27:30;24.65;;;9.52;;
79338;SDS011;74181;41.704;44.786;2023-12-20T11:29:58;25.25;;;9.30;;
79338;SDS011;74181;41.704;44.786;2023-12-20T11:34:58;20.73;;;9.10;;
79338;SDS011;74181;41.704;44.786;2023-12-20T11:37:29;27.35;;;9.80;;
79338;SDS011;74181;41.704;44.786;2023-12-20T11:40:08;18.48;;;8.48;;
79338;SDS011;74181;41.704;44.786;2023-12-20T11:42:38;23.17;;;9.52;;
79338;SDS011;74181;41.704;44.786;2023-12-20T11:45:08;23.38;;;9.30;;
79338;SDS011;74181;41.704;44.786;2023-12-20T11:47:34;22.23;;;8.87;;
79338;SDS011;74181;41.704;44.786;2023-12-20T11:50:00;21.65;;;8.80;;
79338;SDS011;74181;41.704;44.786;2023-12-20T11:52:30;22.27;;;8.50;;
79338;SDS011;74181;41.704;44.786;2023-12-20T11:54:56;19.23;;;8.40;;
79338;SDS011;74181;41.704;44.786;2023-12-20T11:57:23;19.27;;;8.50;;
79338;SDS011;74181;41.704;44.786;2023-12-20T11:59:49;19.33;;;8.60;;
79338;SDS011;74181;41.704;44.786;2023-12-20T12:02:15;18.52;;;8.57;;
79338;SDS011;74181;41.704;44.786;2023-12-20T12:04:41;21.05;;;8.63;;
79338;SDS011;74181;41.704;44.786;2023-12-20T12:07:08;22.85;;;8.90;;
79338;SDS011;74181;41.704;44.786;2023-12-20T12:09:34;21.13;;;8.77;;
79338;SDS011;74181;41.704;44.786;2023-12-20T12:12:00;19.63;;;8.57;;
79338;SDS011;74181;41.704;44.786;2023-12-20T12:14:27;23.10;;;8.57;;
79338;SDS011;74181;41.704;44.786;2023-12-20T12:16:53;22.02;;;8.52;;
79338;SDS011;74181;41.704;44.786;2023-12-20T12:19:23;19.60;;;8.50;;
79338;SDS011;74181;41.704;44.786;2023-12-20T12:21:50;20.02;;;8.52;;
79338;SDS011;74181;41.704;44.786;2023-12-20T12:24:19;20.63;;;8.97;;
79338;SDS011;74181;41.704;44.786;2023-12-20T12:26:50;20.95;;;8.60;;
79338;SDS011;74181;41.704;44.786;2023-12-20T12:29:17;23.77;;;8.63;;
79338;SDS011;74181;41.704;44.786;2023-12-20T12:31:43;20.25;;;8.30;;
79338;SDS011;74181;41.704;44.786;2023-12-20T12:34:09;20.15;;;8.27;;
79338;SDS011;74181;41.704;44.786;2023-12-20T12:36:35;21.70;;;8.37;;
79338;SDS011;74181;41.704;44.786;2023-12-20T12:39:02;21.38;;;8.85;;
79338;SDS011;74181;41.704;44.786;2023-12-20T12:41:31;21.65;;;8.90;;
79338;SDS011;74181;41.704;44.786;2023-12-20T12:43:57;19.77;;;9.60;;
79338;SDS011;74181;41.704;44.786;2023-12-20T12:46:24;23.50;;;9.75;;
79338;SDS011;74181;41.704;44.786;2023-12-20T12:48:50;19.77;;;8.97;;
79338;SDS011;74181;41.704;44.786;2023-12-20T12:51:16;25.40;;;10.48;;
79338;SDS011;74181;41.704;44.786;2023-12-20T12:53:42;28.65;;;11.07;;
79338;SDS011;74181;41.704;44.786;2023-12-20T12:56:08;32.75;;;11.18;;
79338;SDS011;74181;41.704;44.786;2023-12-20T12:58:34;30.88;;;11.80;;
79338;SDS011;74181;41.704;44.786;2023-12-20T13:01:00;34.00;;;11.90;;
79338;SDS011;74181;41.704;44.786;2023-12-20T13:03:27;35.25;;;11.25;;
79338;SDS011;74181;41.704;44.786;2023-12-20T13:05:53;37.25;;;11.98;;
79338;SDS011;74181;41.704;44.786;2023-12-20T13:08:19;37.42;;;12.65;;
79338;SDS011;74181;41.704;44.786;2023-12-20T13:10:45;33.75;;;12.57;;
79338;SDS011;74181;41.704;44.786;2023-12-20T13:13:12;30.67;;;11.80;;
79338;SDS011;74181;41.704;44.786;2023-12-20T13:15:38;36.33;;;11.90;;
79338;SDS011;74181;41.704;44.786;2023-12-20T13:18:04;28.85;;;11.40;;
79338;SDS011;74181;41.704;44.786;2023-12-20T13:20:32;25.13;;;11.40;;
79338;SDS011;74181;41.704;44.786;2023-12-20T13:22:58;30.08;;;11.93;;
79338;SDS011;74181;41.704;44.786;2023-12-20T13:25:25;25.43;;;10.97;;
79338;SDS011;74181;41.704;44.786;2023-12-20T13:27:51;27.88;;;12.02;;
79338;SDS011;74181;41.704;44.786;2023-12-20T13:30:17;29.85;;;12.05;;
79338;SDS011;74181;41.704;44.786;2023-12-20T13:32:44;28.15;;;11.38;;
79338;SDS011;74181;41.704;44.786;2023-12-20T13:35:10;26.85;;;11.93;;
79338;SDS011;74181;41.704;44.786;2023-12-20T13:37:36;28.07;;;11.13;;
79338;SDS011;74181;41.704;44.786;2023-12-20T13:40:02;32.03;;;12.25;;
79338;SDS011;74181;41.704;44.786;2023-12-20T13:42:30;34.25;;;12.73;;
79338;SDS011;74181;41.704;44.786;2023-12-20T13:44:56;32.78;;;13.82;;
79338;SDS011;74181;41.704;44.786;2023-12-20T13:47:22;37.70;;;15.60;;
79338;SDS011;74181;41.704;44.786;2023-12-20T13:49:48;32.60;;;13.83;;
79338;SDS011;74181;41.704;44.786;2023-12-20T13:52:14;30.35;;;13.55;;
79338;SDS011;74181;41.704;44.786;2023-12-20T13:54:41;33.00;;;13.70;;
79338;SDS011;74181;41.704;44.786;2023-12-20T13:57:08;30.90;;;13.18;;
79338;SDS011;74181;41.704;44.786;2023-12-20T13:59:34;30.50;;;14.20;;
79338;SDS011;74181;41.704;44.786;2023-12-20T14:02:00;31.03;;;12.67;;
79338;SDS011;74181;41.704;44.786;2023-12-20T14:04:29;36.60;;;14.82;;
79338;SDS011;74181;41.704;44.786;2023-12-20T14:06:55;31.77;;;13.82;;
79338;SDS011;74181;41.704;44.786;2023-12-20T14:09:21;30.90;;;14.55;;
79338;SDS011;74181;41.704;44.786;2023-12-20T14:11:47;31.63;;;13.25;;
79338;SDS011;74181;41.704;44.786;2023-12-20T14:14:13;37.77;;;14.13;;
79338;SDS011;74181;41.704;44.786;2023-12-20T14:16:39;35.97;;;15.73;;
79338;SDS011;74181;41.704;44.786;2023-12-20T14:19:07;38.50;;;15.57;;
79338;SDS011;74181;41.704;44.786;2023-12-20T14:21:35;36.80;;;15.98;;
79338;SDS011;74181;41.704;44.786;2023-12-20T14:24:01;40.55;;;15.02;;
79338;SDS011;74181;41.704;44.786;2023-12-20T14:26:27;34.00;;;14.47;;
79338;SDS011;74181;41.704;44.786;2023-12-20T14:28:53;41.30;;;14.98;;